Little Burnt Bay, Canada
Current Conditions -  °F | °C
As of 7:00 PM on Monday 26 Jan 2015 (Local Time) from CYQX Reporting Station
Few Clouds Few Clouds  
Wind Chill:   Ceiling: Unl
Heat Index: 16°   Visibility: 20mi
Dew Point:   Wind: 17mph
Humidity: 58%   Direction: 240°WSW
Pressure: 30.02"   Gusts: 31mph
Location:  49.33°N, 55.08°W
Report Text: CYQX 262200Z 24015G27KT 20SM FEW033 M09/M16 A3002 RMK SC2 PRESRR SLP178
Loading
Personal Weather Stations






























Interactive Weather Map New forecast layout! Learn more

10-Day Weather Forecast

Advertisements
Track Severe Weather on mobile